sensor_id;sensor_type;location;lat;lon;timestamp;pressure;altitude;pressure_sealevel;temperature;humidity
12626;BME280;6378;42.684;23.372;2023-04-27T00:00:38;94749.81;;;9.15;68.73
12626;BME280;6378;42.684;23.372;2023-04-27T00:03:03;94731.44;;;9.01;68.82
12626;BME280;6378;42.684;23.372;2023-04-27T00:05:34;94732.44;;;8.97;68.90
12626;BME280;6378;42.684;23.372;2023-04-27T00:08:00;94723.63;;;8.96;70.85
12626;BME280;6378;42.684;23.372;2023-04-27T00:10:26;94753.34;;;9.03;68.58
12626;BME280;6378;42.684;23.372;2023-04-27T00:12:51;94755.38;;;8.94;68.16
12626;BME280;6378;42.684;23.372;2023-04-27T00:15:16;94756.16;;;8.95;69.62
12626;BME280;6378;42.684;23.372;2023-04-27T00:17:42;94728.28;;;8.72;69.00
12626;BME280;6378;42.684;23.372;2023-04-27T00:20:08;94752.84;;;8.86;68.52
12626;BME280;6378;42.684;23.372;2023-04-27T00:22:36;94768.16;;;8.85;69.64
12626;BME280;6378;42.684;23.372;2023-04-27T00:25:02;94748.88;;;8.55;71.30
12626;BME280;6378;42.684;23.372;2023-04-27T00:27:27;94768.53;;;8.72;70.63
12626;BME280;6378;42.684;23.372;2023-04-27T00:29:53;94764.75;;;8.73;71.44
12626;BME280;6378;42.684;23.372;2023-04-27T00:32:18;94762.63;;;8.66;70.85
12626;BME280;6378;42.684;23.372;2023-04-27T00:34:43;94770.56;;;8.62;70.58
12626;BME280;6378;42.684;23.372;2023-04-27T00:37:09;94758.97;;;8.58;70.80
12626;BME280;6378;42.684;23.372;2023-04-27T00:39:35;94767.00;;;8.58;70.64
12626;BME280;6378;42.684;23.372;2023-04-27T00:42:00;94765.13;;;8.47;70.51
12626;BME280;6378;42.684;23.372;2023-04-27T00:44:26;94767.38;;;8.45;70.28
12626;BME280;6378;42.684;23.372;2023-04-27T00:46:52;94772.84;;;8.48;72.21
12626;BME280;6378;42.684;23.372;2023-04-27T00:49:19;94764.66;;;8.69;90.93
12626;BME280;6378;42.684;23.372;2023-04-27T00:51:46;94776.41;;;8.92;76.62
12626;BME280;6378;42.684;23.372;2023-04-27T00:54:15;94765.19;;;8.75;74.25
12626;BME280;6378;42.684;23.372;2023-04-27T00:56:43;94773.38;;;8.54;74.27
12626;BME280;6378;42.684;23.372;2023-04-27T00:59:08;94751.81;;;8.26;75.38
12626;BME280;6378;42.684;23.372;2023-04-27T01:01:33;94776.22;;;8.45;75.66
12626;BME280;6378;42.684;23.372;2023-04-27T01:03:59;94776.66;;;8.35;77.48
12626;BME280;6378;42.684;23.372;2023-04-27T01:06:24;94783.25;;;8.38;75.30
12626;BME280;6378;42.684;23.372;2023-04-27T01:08:52;94783.66;;;8.27;76.59
12626;BME280;6378;42.684;23.372;2023-04-27T01:11:17;94779.53;;;8.18;77.42
12626;BME280;6378;42.684;23.372;2023-04-27T01:13:43;94781.88;;;8.19;77.11
12626;BME280;6378;42.684;23.372;2023-04-27T01:16:08;94787.16;;;8.16;78.28
12626;BME280;6378;42.684;23.372;2023-04-27T01:18:34;94786.47;;;8.19;79.43
12626;BME280;6378;42.684;23.372;2023-04-27T01:20:59;94777.06;;;8.13;79.43
12626;BME280;6378;42.684;23.372;2023-04-27T01:23:25;94782.00;;;8.11;76.14
12626;BME280;6378;42.684;23.372;2023-04-27T01:25:50;94795.06;;;8.12;79.96
12626;BME280;6378;42.684;23.372;2023-04-27T01:28:16;94787.91;;;8.04;77.30
12626;BME280;6378;42.684;23.372;2023-04-27T01:30:41;94793.28;;;8.04;79.14
12626;BME280;6378;42.684;23.372;2023-04-27T01:33:07;94794.19;;;7.96;81.00
12626;BME280;6378;42.684;23.372;2023-04-27T01:35:32;94789.56;;;7.97;81.54
12626;BME280;6378;42.684;23.372;2023-04-27T01:37:58;94796.84;;;7.96;81.75
12626;BME280;6378;42.684;23.372;2023-04-27T01:40:23;94786.56;;;7.86;79.80
12626;BME280;6378;42.684;23.372;2023-04-27T01:42:49;94794.94;;;7.84;78.73
12626;BME280;6378;42.684;23.372;2023-04-27T01:45:14;94811.00;;;7.84;81.64
12626;BME280;6378;42.684;23.372;2023-04-27T01:47:40;94804.09;;;7.83;82.08
12626;BME280;6378;42.684;23.372;2023-04-27T01:50:05;94804.44;;;7.94;80.40
12626;BME280;6378;42.684;23.372;2023-04-27T01:52:31;94767.44;;;7.63;80.19
12626;BME280;6378;42.684;23.372;2023-04-27T01:54:56;94800.28;;;7.84;80.63
12626;BME280;6378;42.684;23.372;2023-04-27T01:57:22;94804.50;;;7.73;81.87
12626;BME280;6378;42.684;23.372;2023-04-27T01:59:47;94798.16;;;7.66;83.17
12626;BME280;6378;42.684;23.372;2023-04-27T02:02:13;94804.41;;;7.82;83.03
12626;BME280;6378;42.684;23.372;2023-04-27T02:04:38;94804.41;;;7.70;82.57
12626;BME280;6378;42.684;23.372;2023-04-27T02:07:03;94811.53;;;7.66;82.09
12626;BME280;6378;42.684;23.372;2023-04-27T02:09:29;94819.09;;;7.64;82.45
12626;BME280;6378;42.684;23.372;2023-04-27T02:11:54;94804.34;;;7.58;82.70
12626;BME280;6378;42.684;23.372;2023-04-27T02:14:20;94805.72;;;7.64;81.62
12626;BME280;6378;42.684;23.372;2023-04-27T02:16:45;94809.06;;;7.61;82.11
12626;BME280;6378;42.684;23.372;2023-04-27T02:19:10;94808.16;;;7.57;81.85
12626;BME280;6378;42.684;23.372;2023-04-27T02:21:36;94812.28;;;7.54;81.74
12626;BME280;6378;42.684;23.372;2023-04-27T02:24:03;94813.19;;;7.58;85.03
12626;BME280;6378;42.684;23.372;2023-04-27T02:26:29;94799.56;;;7.51;85.14
12626;BME280;6378;42.684;23.372;2023-04-27T02:28:54;94799.56;;;7.63;89.54
12626;BME280;6378;42.684;23.372;2023-04-27T02:31:23;94806.72;;;7.59;81.36
12626;BME280;6378;42.684;23.372;2023-04-27T02:33:49;94812.06;;;7.59;85.15
12626;BME280;6378;42.684;23.372;2023-04-27T02:36:14;94805.28;;;7.62;85.92
12626;BME280;6378;42.684;23.372;2023-04-27T02:38:40;94817.44;;;7.59;83.18
12626;BME280;6378;42.684;23.372;2023-04-27T02:41:05;94815.28;;;7.53;80.26
12626;BME280;6378;42.684;23.372;2023-04-27T02:43:30;94804.56;;;7.53;83.05
12626;BME280;6378;42.684;23.372;2023-04-27T02:45:56;94824.66;;;7.47;82.55
12626;BME280;6378;42.684;23.372;2023-04-27T02:48:21;94822.41;;;7.49;80.34
12626;BME280;6378;42.684;23.372;2023-04-27T02:50:47;94815.47;;;7.35;78.89
12626;BME280;6378;42.684;23.372;2023-04-27T02:53:12;94805.16;;;7.25;81.71
12626;BME280;6378;42.684;23.372;2023-04-27T02:55:43;94812.19;;;7.30;80.96
12626;BME280;6378;42.684;23.372;2023-04-27T02:58:09;94817.25;;;7.31;80.17
12626;BME280;6378;42.684;23.372;2023-04-27T03:00:35;94819.53;;;7.21;77.66
12626;BME280;6378;42.684;23.372;2023-04-27T03:03:00;94824.69;;;7.26;78.07
12626;BME280;6378;42.684;23.372;2023-04-27T03:05:26;94817.66;;;7.21;79.71
12626;BME280;6378;42.684;23.372;2023-04-27T03:07:53;94824.56;;;7.22;80.90
12626;BME280;6378;42.684;23.372;2023-04-27T03:10:18;94825.69;;;7.21;78.85
12626;BME280;6378;42.684;23.372;2023-04-27T03:12:44;94832.59;;;7.22;79.59
12626;BME280;6378;42.684;23.372;2023-04-27T03:15:09;94834.69;;;7.17;80.65
12626;BME280;6378;42.684;23.372;2023-04-27T03:17:35;94801.00;;;6.95;81.34
12626;BME280;6378;42.684;23.372;2023-04-27T03:20:00;94845.41;;;7.17;80.71
12626;BME280;6378;42.684;23.372;2023-04-27T03:22:25;94842.84;;;7.20;78.69
12626;BME280;6378;42.684;23.372;2023-04-27T03:24:51;94843.94;;;7.19;80.51
12626;BME280;6378;42.684;23.372;2023-04-27T03:27:16;94834.63;;;7.05;80.40
12626;BME280;6378;42.684;23.372;2023-04-27T03:29:41;94846.19;;;7.17;80.67
12626;BME280;6378;42.684;23.372;2023-04-27T03:32:07;94848.38;;;7.15;80.96
12626;BME280;6378;42.684;23.372;2023-04-27T03:34:32;94839.00;;;7.09;78.67
12626;BME280;6378;42.684;23.372;2023-04-27T03:36:58;94813.75;;;6.77;82.19
12626;BME280;6378;42.684;23.372;2023-04-27T03:39:23;94851.34;;;7.02;81.35
12626;BME280;6378;42.684;23.372;2023-04-27T03:41:49;94860.47;;;7.01;79.73
12626;BME280;6378;42.684;23.372;2023-04-27T03:44:14;94859.50;;;7.05;81.00
12626;BME280;6378;42.684;23.372;2023-04-27T03:46:39;94833.66;;;6.88;80.51
12626;BME280;6378;42.684;23.372;2023-04-27T03:49:05;94856.63;;;7.10;79.65
12626;BME280;6378;42.684;23.372;2023-04-27T03:51:31;94851.25;;;7.10;77.76
12626;BME280;6378;42.684;23.372;2023-04-27T03:53:58;94866.94;;;7.20;78.68
12626;BME280;6378;42.684;23.372;2023-04-27T03:56:23;94861.13;;;7.18;77.93
12626;BME280;6378;42.684;23.372;2023-04-27T03:58:49;94867.91;;;7.16;79.79
12626;BME280;6378;42.684;23.372;2023-04-27T04:01:14;94876.25;;;7.14;79.01
12626;BME280;6378;42.684;23.372;2023-04-27T04:03:41;94875.03;;;7.12;80.11
12626;BME280;6378;42.684;23.372;2023-04-27T04:06:06;94879.59;;;7.11;79.59
12626;BME280;6378;42.684;23.372;2023-04-27T04:08:32;94885.41;;;7.13;79.14
12626;BME280;6378;42.684;23.372;2023-04-27T04:10:58;94887.44;;;7.16;77.56
12626;BME280;6378;42.684;23.372;2023-04-27T04:13:24;94891.50;;;7.22;78.00
12626;BME280;6378;42.684;23.372;2023-04-27T04:15:57;94897.09;;;7.29;79.07
12626;BME280;6378;42.684;23.372;2023-04-27T04:18:24;94884.38;;;7.26;75.77
12626;BME280;6378;42.684;23.372;2023-04-27T04:20:49;94908.06;;;7.36;76.84
12626;BME280;6378;42.684;23.372;2023-04-27T04:23:15;94898.00;;;7.33;76.01
12626;BME280;6378;42.684;23.372;2023-04-27T04:25:40;94899.25;;;7.36;77.04
12626;BME280;6378;42.684;23.372;2023-04-27T04:28:05;94911.44;;;7.46;76.67
12626;BME280;6378;42.684;23.372;2023-04-27T04:30:31;94894.69;;;7.36;75.66
12626;BME280;6378;42.684;23.372;2023-04-27T04:32:57;94914.91;;;7.67;75.43
12626;BME280;6378;42.684;23.372;2023-04-27T04:35:22;94914.22;;;7.70;73.73
12626;BME280;6378;42.684;23.372;2023-04-27T04:37:48;94916.28;;;7.85;72.96
12626;BME280;6378;42.684;23.372;2023-04-27T04:40:13;94913.53;;;8.39;70.98
12626;BME280;6378;42.684;23.372;2023-04-27T04:42:39;94926.50;;;8.49;66.99
12626;BME280;6378;42.684;23.372;2023-04-27T04:45:05;94924.06;;;8.68;66.97
12626;BME280;6378;42.684;23.372;2023-04-27T04:47:31;94940.41;;;9.39;65.12
12626;BME280;6378;42.684;23.372;2023-04-27T04:49:57;94935.50;;;9.97;60.17
12626;BME280;6378;42.684;23.372;2023-04-27T04:52:23;94927.19;;;10.61;56.75
12626;BME280;6378;42.684;23.372;2023-04-27T04:54:51;94915.13;;;10.71;55.29
12626;BME280;6378;42.684;23.372;2023-04-27T04:57:17;94929.63;;;11.33;54.02
12626;BME280;6378;42.684;23.372;2023-04-27T04:59:43;94945.63;;;12.18;52.00
12626;BME280;6378;42.684;23.372;2023-04-27T05:02:08;94943.38;;;12.20;50.62
12626;BME280;6378;42.684;23.372;2023-04-27T05:04:34;94948.69;;;11.78;51.23
12626;BME280;6378;42.684;23.372;2023-04-27T05:06:59;94943.41;;;11.82;50.86
12626;BME280;6378;42.684;23.372;2023-04-27T05:09:25;94955.41;;;12.45;50.81
12626;BME280;6378;42.684;23.372;2023-04-27T05:11:50;94934.88;;;12.64;48.22
12626;BME280;6378;42.684;23.372;2023-04-27T05:14:15;94956.44;;;12.83;46.91
12626;BME280;6378;42.684;23.372;2023-04-27T05:16:41;94967.00;;;13.14;46.96
12626;BME280;6378;42.684;23.372;2023-04-27T05:19:07;94957.06;;;13.22;46.38
12626;BME280;6378;42.684;23.372;2023-04-27T05:21:32;94963.44;;;12.87;46.95
12626;BME280;6378;42.684;23.372;2023-04-27T05:23:58;94966.72;;;13.00;47.04
12626;BME280;6378;42.684;23.372;2023-04-27T05:26:24;94939.09;;;13.10;45.42
12626;BME280;6378;42.684;23.372;2023-04-27T05:28:49;94969.03;;;13.21;46.18
12626;BME280;6378;42.684;23.372;2023-04-27T05:31:15;94960.50;;;12.73;46.87
12626;BME280;6378;42.684;23.372;2023-04-27T05:33:40;94958.22;;;12.10;47.83
12626;BME280;6378;42.684;23.372;2023-04-27T05:36:06;94968.53;;;11.70;49.21
12626;BME280;6378;42.684;23.372;2023-04-27T05:38:32;94968.16;;;11.17;52.21
12626;BME280;6378;42.684;23.372;2023-04-27T05:41:04;94954.19;;;10.96;51.35
12626;BME280;6378;42.684;23.372;2023-04-27T05:43:29;94983.03;;;10.96;52.22
12626;BME280;6378;42.684;23.372;2023-04-27T05:45:55;94944.44;;;10.29;53.25
12626;BME280;6378;42.684;23.372;2023-04-27T05:48:20;94968.75;;;10.32;54.01
12626;BME280;6378;42.684;23.372;2023-04-27T05:50:46;94970.91;;;10.27;54.88
12626;BME280;6378;42.684;23.372;2023-04-27T05:53:11;94970.41;;;10.09;54.55
12626;BME280;6378;42.684;23.372;2023-04-27T05:55:36;94966.56;;;9.94;55.76
12626;BME280;6378;42.684;23.372;2023-04-27T05:58:03;94969.94;;;9.91;55.34
12626;BME280;6378;42.684;23.372;2023-04-27T06:00:28;94911.38;;;9.57;56.24
12626;BME280;6378;42.684;23.372;2023-04-27T06:02:54;94968.84;;;9.80;57.60
12626;BME280;6378;42.684;23.372;2023-04-27T06:05:19;94977.31;;;9.94;58.07
12626;BME280;6378;42.684;23.372;2023-04-27T06:07:46;94972.91;;;10.02;57.39
12626;BME280;6378;42.684;23.372;2023-04-27T06:10:11;94976.28;;;10.27;57.93
12626;BME280;6378;42.684;23.372;2023-04-27T06:12:37;94980.81;;;10.38;56.49
12626;BME280;6378;42.684;23.372;2023-04-27T06:15:03;94958.53;;;10.38;56.72
12626;BME280;6378;42.684;23.372;2023-04-27T06:17:37;94975.31;;;10.78;55.67
12626;BME280;6378;42.684;23.372;2023-04-27T06:20:06;94971.19;;;11.00;54.82
12626;BME280;6378;42.684;23.372;2023-04-27T06:22:36;94977.63;;;11.27;53.42
12626;BME280;6378;42.684;23.372;2023-04-27T06:25:03;94980.78;;;11.48;51.99
12626;BME280;6378;42.684;23.372;2023-04-27T06:27:29;94981.22;;;11.50;52.85
12626;BME280;6378;42.684;23.372;2023-04-27T06:29:54;94972.00;;;11.51;53.63
12626;BME280;6378;42.684;23.372;2023-04-27T06:32:20;94981.09;;;11.62;51.78
12626;BME280;6378;42.684;23.372;2023-04-27T06:34:46;94978.84;;;11.49;52.28
12626;BME280;6378;42.684;23.372;2023-04-27T06:37:12;94977.75;;;11.34;51.76
12626;BME280;6378;42.684;23.372;2023-04-27T06:39:39;94975.94;;;11.38;52.72
12626;BME280;6378;42.684;23.372;2023-04-27T06:42:04;94961.84;;;11.80;53.25
12626;BME280;6378;42.684;23.372;2023-04-27T06:44:30;94958.28;;;12.56;50.23
12626;BME280;6378;42.684;23.372;2023-04-27T06:46:55;94965.97;;;13.22;48.60
12626;BME280;6378;42.684;23.372;2023-04-27T06:49:20;94951.47;;;13.34;46.85
12626;BME280;6378;42.684;23.372;2023-04-27T06:51:47;94963.22;;;13.75;46.85
12626;BME280;6378;42.684;23.372;2023-04-27T06:54:12;94961.16;;;13.65;45.84
12626;BME280;6378;42.684;23.372;2023-04-27T06:56:38;94961.94;;;13.95;45.27
12626;BME280;6378;42.684;23.372;2023-04-27T06:59:03;94959.88;;;14.18;45.17
12626;BME280;6378;42.684;23.372;2023-04-27T07:01:29;94950.22;;;14.51;44.18
12626;BME280;6378;42.684;23.372;2023-04-27T07:03:54;94953.31;;;14.90;42.54
12626;BME280;6378;42.684;23.372;2023-04-27T07:06:21;94963.47;;;15.03;42.65
12626;BME280;6378;42.684;23.372;2023-04-27T07:08:48;94954.38;;;14.82;42.43
12626;BME280;6378;42.684;23.372;2023-04-27T07:11:13;94957.50;;;14.47;42.43
12626;BME280;6378;42.684;23.372;2023-04-27T07:13:40;94946.75;;;14.54;41.65
12626;BME280;6378;42.684;23.372;2023-04-27T07:16:06;94959.56;;;13.60;43.17
12626;BME280;6378;42.684;23.372;2023-04-27T07:18:31;94957.91;;;13.82;43.67
12626;BME280;6378;42.684;23.372;2023-04-27T07:20:57;94958.25;;;14.44;43.14
12626;BME280;6378;42.684;23.372;2023-04-27T07:23:22;94931.38;;;15.09;42.51
12626;BME280;6378;42.684;23.372;2023-04-27T07:25:48;94946.53;;;15.68;41.97
12626;BME280;6378;42.684;23.372;2023-04-27T07:28:14;94942.69;;;15.83;40.60
12626;BME280;6378;42.684;23.372;2023-04-27T07:30:40;94947.00;;;15.30;40.69
12626;BME280;6378;42.684;23.372;2023-04-27T07:33:07;94955.44;;;15.17;41.38
12626;BME280;6378;42.684;23.372;2023-04-27T07:35:32;94957.47;;;14.80;40.82
12626;BME280;6378;42.684;23.372;2023-04-27T07:37:59;94954.19;;;14.60;41.96
12626;BME280;6378;42.684;23.372;2023-04-27T07:40:26;94919.19;;;14.41;41.13
12626;BME280;6378;42.684;23.372;2023-04-27T07:42:52;94955.13;;;14.79;41.78
12626;BME280;6378;42.684;23.372;2023-04-27T07:45:18;94954.75;;;14.80;41.95
12626;BME280;6378;42.684;23.372;2023-04-27T07:47:43;94943.34;;;15.04;50.86
12626;BME280;6378;42.684;23.372;2023-04-27T07:50:09;94928.75;;;15.88;51.37
12626;BME280;6378;42.684;23.372;2023-04-27T07:52:35;94949.94;;;16.55;43.36
12626;BME280;6378;42.684;23.372;2023-04-27T07:55:01;94943.81;;;17.11;42.38
12626;BME280;6378;42.684;23.372;2023-04-27T07:57:28;94946.91;;;17.45;40.51
12626;BME280;6378;42.684;23.372;2023-04-27T07:59:53;94946.16;;;17.13;38.43
12626;BME280;6378;42.684;23.372;2023-04-27T08:02:19;94943.81;;;16.86;39.68
12626;BME280;6378;42.684;23.372;2023-04-27T08:04:44;94940.09;;;16.01;38.42
12626;BME280;6378;42.684;23.372;2023-04-27T08:07:10;94944.94;;;16.68;39.90
12626;BME280;6378;42.684;23.372;2023-04-27T08:09:36;94944.56;;;16.87;38.49
12626;BME280;6378;42.684;23.372;2023-04-27T08:12:01;94935.56;;;16.44;38.30
12626;BME280;6378;42.684;23.372;2023-04-27T08:14:27;94936.22;;;16.09;40.95
12626;BME280;6378;42.684;23.372;2023-04-27T08:16:52;94957.94;;;16.13;38.87
12626;BME280;6378;42.684;23.372;2023-04-27T08:19:18;94951.81;;;16.30;38.51
12626;BME280;6378;42.684;23.372;2023-04-27T08:21:43;94937.53;;;16.58;39.58
12626;BME280;6378;42.684;23.372;2023-04-27T08:24:09;94951.19;;;17.11;38.29
12626;BME280;6378;42.684;23.372;2023-04-27T08:26:34;94946.88;;;17.56;38.32
12626;BME280;6378;42.684;23.372;2023-04-27T08:29:00;94951.06;;;18.06;36.88
12626;BME280;6378;42.684;23.372;2023-04-27T08:31:26;94948.03;;;18.74;36.01
12626;BME280;6378;42.684;23.372;2023-04-27T08:33:52;94948.47;;;18.65;34.82
12626;BME280;6378;42.684;23.372;2023-04-27T08:36:20;94944.91;;;18.72;34.81
12626;BME280;6378;42.684;23.372;2023-04-27T08:38:49;94947.75;;;19.13;38.61
12626;BME280;6378;42.684;23.372;2023-04-27T08:41:21;94946.44;;;19.31;35.44
12626;BME280;6378;42.684;23.372;2023-04-27T08:43:48;94947.09;;;19.50;34.70
12626;BME280;6378;42.684;23.372;2023-04-27T08:46:21;94942.09;;;18.09;33.72
12626;BME280;6378;42.684;23.372;2023-04-27T08:48:51;94938.72;;;17.66;35.55
12626;BME280;6378;42.684;23.372;2023-04-27T08:51:18;94951.56;;;17.62;36.05
12626;BME280;6378;42.684;23.372;2023-04-27T08:53:50;94945.28;;;16.45;36.15
12626;BME280;6378;42.684;23.372;2023-04-27T08:56:19;94942.44;;;16.10;39.10
12626;BME280;6378;42.684;23.372;2023-04-27T08:58:48;94950.28;;;16.43;39.20
12626;BME280;6378;42.684;23.372;2023-04-27T09:01:14;94947.28;;;16.73;36.11
12626;BME280;6378;42.684;23.372;2023-04-27T09:03:40;94943.81;;;16.86;39.19
12626;BME280;6378;42.684;23.372;2023-04-27T09:06:06;94927.47;;;17.43;38.03
12626;BME280;6378;42.684;23.372;2023-04-27T09:08:41;94945.22;;;18.08;36.05
12626;BME280;6378;42.684;23.372;2023-04-27T09:11:07;94937.28;;;18.42;35.34
12626;BME280;6378;42.684;23.372;2023-04-27T09:13:40;94917.34;;;17.65;36.86
12626;BME280;6378;42.684;23.372;2023-04-27T09:16:06;94947.16;;;18.04;37.56
12626;BME280;6378;42.684;23.372;2023-04-27T09:18:35;94937.06;;;18.04;36.21
12626;BME280;6378;42.684;23.372;2023-04-27T09:21:02;94934.44;;;17.65;36.02
12626;BME280;6378;42.684;23.372;2023-04-27T09:23:32;94938.38;;;17.11;38.14
12626;BME280;6378;42.684;23.372;2023-04-27T09:26:02;94937.63;;;17.25;38.33
12626;BME280;6378;42.684;23.372;2023-04-27T09:28:29;94931.38;;;17.07;37.39
12626;BME280;6378;42.684;23.372;2023-04-27T09:31:00;94930.56;;;16.67;38.14
12626;BME280;6378;42.684;23.372;2023-04-27T09:33:27;94930.59;;;16.60;38.15
12626;BME280;6378;42.684;23.372;2023-04-27T09:35:54;94928.97;;;16.41;39.11
12626;BME280;6378;42.684;23.372;2023-04-27T09:38:21;94926.72;;;16.61;37.42
12626;BME280;6378;42.684;23.372;2023-04-27T09:40:48;94920.91;;;16.87;35.64
12626;BME280;6378;42.684;23.372;2023-04-27T09:43:15;94911.19;;;16.69;36.79
12626;BME280;6378;42.684;23.372;2023-04-27T09:45:40;94915.06;;;16.93;37.05
12626;BME280;6378;42.684;23.372;2023-04-27T09:48:06;94918.16;;;17.30;36.69
12626;BME280;6378;42.684;23.372;2023-04-27T09:50:37;94891.00;;;16.84;36.12
12626;BME280;6378;42.684;23.372;2023-04-27T09:53:06;94904.50;;;16.38;36.63
12626;BME280;6378;42.684;23.372;2023-04-27T09:55:39;94906.84;;;16.39;38.70
12626;BME280;6378;42.684;23.372;2023-04-27T10:08:56;94902.56;;;16.49;37.33
12626;BME280;6378;42.684;23.372;2023-04-27T10:11:39;94906.53;;;16.69;36.72
12626;BME280;6378;42.684;23.372;2023-04-27T10:14:09;94906.91;;;16.68;37.40
12626;BME280;6378;42.684;23.372;2023-04-27T10:16:59;94905.31;;;16.56;37.43
12626;BME280;6378;42.684;23.372;2023-04-27T10:19:25;94913.13;;;16.68;36.64
12626;BME280;6378;42.684;23.372;2023-04-27T10:21:58;94907.63;;;16.58;37.97
12626;BME280;6378;42.684;23.372;2023-04-27T10:24:40;94904.13;;;16.54;36.37
12626;BME280;6378;42.684;23.372;2023-04-27T10:27:28;94899.06;;;16.52;37.80
12626;BME280;6378;42.684;23.372;2023-04-27T10:40:03;94905.75;;;17.01;40.80
12626;BME280;6378;42.684;23.372;2023-04-27T10:43:06;94898.34;;;16.76;38.88
12626;BME280;6378;42.684;23.372;2023-04-27T10:45:33;94881.63;;;16.53;37.74
12626;BME280;6378;42.684;23.372;2023-04-27T10:51:16;94904.97;;;16.61;39.30
12626;BME280;6378;42.684;23.372;2023-04-27T10:53:42;94903.41;;;16.74;37.45
12626;BME280;6378;42.684;23.372;2023-04-27T10:56:07;94902.63;;;17.16;38.70
12626;BME280;6378;42.684;23.372;2023-04-27T10:58:36;94875.81;;;17.18;37.25
12626;BME280;6378;42.684;23.372;2023-04-27T11:01:02;94892.03;;;17.75;35.62
12626;BME280;6378;42.684;23.372;2023-04-27T11:03:28;94891.31;;;17.36;34.50
12626;BME280;6378;42.684;23.372;2023-04-27T11:06:01;94899.91;;;17.13;34.75
12626;BME280;6378;42.684;23.372;2023-04-27T11:08:28;94892.44;;;16.25;35.13
12626;BME280;6378;42.684;23.372;2023-04-27T11:10:55;94883.41;;;15.89;39.22
12626;BME280;6378;42.684;23.372;2023-04-27T11:13:24;94866.28;;;15.74;38.68
12626;BME280;6378;42.684;23.372;2023-04-27T11:15:55;94892.41;;;16.11;37.41
12626;BME280;6378;42.684;23.372;2023-04-27T11:18:30;94893.06;;;15.76;35.77
12626;BME280;6378;42.684;23.372;2023-04-27T11:23:37;94900.75;;;15.63;37.49
12626;BME280;6378;42.684;23.372;2023-04-27T11:26:14;94902.28;;;15.60;36.29
12626;BME280;6378;42.684;23.372;2023-04-27T11:28:45;94909.25;;;15.62;36.60
12626;BME280;6378;42.684;23.372;2023-04-27T11:31:21;94891.06;;;15.62;36.90
12626;BME280;6378;42.684;23.372;2023-04-27T11:33:48;94886.13;;;15.89;37.15
12626;BME280;6378;42.684;23.372;2023-04-27T11:36:18;94906.31;;;15.98;37.79
12626;BME280;6378;42.684;23.372;2023-04-27T11:38:43;94900.97;;;16.16;37.55
12626;BME280;6378;42.684;23.372;2023-04-27T11:41:09;94876.75;;;15.76;36.40
12626;BME280;6378;42.684;23.372;2023-04-27T11:43:36;94900.41;;;15.68;37.30
12626;BME280;6378;42.684;23.372;2023-04-27T11:46:05;94896.94;;;15.78;38.12
12626;BME280;6378;42.684;23.372;2023-04-27T11:48:35;94893.16;;;16.00;37.23
12626;BME280;6378;42.684;23.372;2023-04-27T11:51:02;94896.38;;;16.56;37.83
12626;BME280;6378;42.684;23.372;2023-04-27T11:53:35;94904.78;;;15.97;36.49
12626;BME280;6378;42.684;23.372;2023-04-27T11:56:02;94878.38;;;15.98;37.85
12626;BME280;6378;42.684;23.372;2023-04-27T11:58:35;94905.66;;;16.26;37.56
12626;BME280;6378;42.684;23.372;2023-04-27T12:01:02;94811.88;;;15.42;36.13
12626;BME280;6378;42.684;23.372;2023-04-27T12:03:28;94926.31;;;15.58;35.88
12626;BME280;6378;42.684;23.372;2023-04-27T12:05:55;94906.97;;;15.64;38.33
12626;BME280;6378;42.684;23.372;2023-04-27T12:08:21;94908.94;;;15.74;36.37
12626;BME280;6378;42.684;23.372;2023-04-27T12:10:47;94914.81;;;15.90;36.08
12626;BME280;6378;42.684;23.372;2023-04-27T12:13:12;94904.69;;;15.83;36.99
12626;BME280;6378;42.684;23.372;2023-04-27T12:15:39;94914.44;;;15.95;39.10
12626;BME280;6378;42.684;23.372;2023-04-27T12:18:04;94894.75;;;16.19;36.76
12626;BME280;6378;42.684;23.372;2023-04-27T12:20:30;94902.56;;;16.38;35.77
12626;BME280;6378;42.684;23.372;2023-04-27T12:22:56;94916.59;;;15.54;35.85
12626;BME280;6378;42.684;23.372;2023-04-27T12:25:22;94916.50;;;15.43;36.53
12626;BME280;6378;42.684;23.372;2023-04-27T12:27:47;94917.91;;;15.85;38.08
12626;BME280;6378;42.684;23.372;2023-04-27T12:30:13;94894.63;;;15.77;35.84
12626;BME280;6378;42.684;23.372;2023-04-27T12:32:39;94920.63;;;15.85;37.28
12626;BME280;6378;42.684;23.372;2023-04-27T12:35:06;94908.75;;;16.35;37.92
12626;BME280;6378;42.684;23.372;2023-04-27T12:37:33;94906.84;;;16.39;35.47
12626;BME280;6378;42.684;23.372;2023-04-27T12:39:58;94910.13;;;15.80;34.72
12626;BME280;6378;42.684;23.372;2023-04-27T12:42:23;94908.75;;;15.42;36.14
12626;BME280;6378;42.684;23.372;2023-04-27T12:44:50;94922.38;;;14.94;37.28
12626;BME280;6378;42.684;23.372;2023-04-27T12:47:17;94917.13;;;14.71;36.59
12626;BME280;6378;42.684;23.372;2023-04-27T12:49:42;94914.72;;;14.63;36.81
12626;BME280;6378;42.684;23.372;2023-04-27T12:52:08;94920.03;;;14.52;36.91
12626;BME280;6378;42.684;23.372;2023-04-27T12:54:33;94914.81;;;14.70;37.21
12626;BME280;6378;42.684;23.372;2023-04-27T12:56:59;94918.44;;;14.88;37.36
12626;BME280;6378;42.684;23.372;2023-04-27T12:59:28;94916.06;;;14.80;37.17
12626;BME280;6378;42.684;23.372;2023-04-27T13:01:54;94915.03;;;14.54;38.06
12626;BME280;6378;42.684;23.372;2023-04-27T13:04:19;94922.88;;;14.26;37.67
12626;BME280;6378;42.684;23.372;2023-04-27T13:06:45;94917.59;;;14.37;37.21
12626;BME280;6378;42.684;23.372;2023-04-27T13:09:11;94899.28;;;14.67;37.41
12626;BME280;6378;42.684;23.372;2023-04-27T13:11:37;94926.69;;;14.58;36.77
12626;BME280;6378;42.684;23.372;2023-04-27T13:14:02;94914.72;;;14.63;36.83
12626;BME280;6378;42.684;23.372;2023-04-27T13:16:29;94912.44;;;14.65;37.17
12626;BME280;6378;42.684;23.372;2023-04-27T13:18:54;94912.19;;;14.81;36.92
12626;BME280;6378;42.684;23.372;2023-04-27T13:21:20;94905.00;;;15.02;37.92
12626;BME280;6378;42.684;23.372;2023-04-27T13:23:46;94902.97;;;14.92;37.19
12626;BME280;6378;42.684;23.372;2023-04-27T13:26:15;94914.59;;;14.89;37.30
12626;BME280;6378;42.684;23.372;2023-04-27T13:28:40;94911.75;;;14.75;36.67